• Join FlightAware (Why Join?)
  • Login
  • US Flag 
04:04AM EDT


 

Airport Tracker/Info


-or-


 

Live Flight TrackerFlight Track Log ✈ RPA3321 ✈ 22-Aug-2013 ✈ KALB - KDCA

Flight Track Log - Related Links

Times and Time Zones

All times are in EDT time to prevent confusion due to time zone crossing. See the RPA3321 flight status page for this flight to view local times or setup timezone preferences in your user account.

Time Position Orientation Groundspeed Altitude Reporting Facility
EDT Latitude Longitude Course Direction KTS MPH feet Rate Location/Type
05:39AM 42.7653 -73.8061 118° Southeast 155 178 1,200  Level Boston Center
05:40AM 42.8028 -73.8153 350° North 186 214 2,700 2,220 Climbing Boston Center
05:41AM 42.8597 -73.9100 309° West 261 300 6,100 3,000 Climbing Boston Center
05:42AM 42.4324 -74.0827 180° South  Level Estimated
05:42AM 42.9086 -74.0019 306° West 266 306 9,800  Level Boston Center
05:43AM 42.3531 -74.1524 172° South  Level Estimated
05:43AM 42.9092 -74.1069 270° West 266 306 11,800  Level Boston Center
05:44AM 42.3085 -74.0396 118° Southeast  Level FlightAware Approximate
05:44AM 42.8642 -74.1964 236° Southwest 302 348 14,500  Level Boston Center
05:45AM 42.7831 -74.1828 173° South 274 315 16,600 1,920 Climbing Boston Center
05:46AM 42.6839 -74.1292 158° South 307 353 18,500 1,740 Climbing Boston Center
05:47AM 42.5989 -74.0844 159° South 348 400 20,200 1,800 Climbing Boston Center
05:48AM 42.5081 -74.0286 156° South 358 412 22,100 1,800 Climbing Boston Center
05:49AM 42.4131 -73.9728 157° South 364 419 23,800 1,440 Climbing Boston Center
05:50AM 42.3136 -73.9169 157° South 377 434 25,000 1,080 Climbing Boston Center
05:51AM 42.2122 -73.8583 157° South 388 447 26,000 480 Climbing Boston Center
05:52AM 42.1089 -73.8003 157° South 398 458 26,000  Level Boston Center
05:53AM 42.0031 -73.7531 162° South 398 458 26,000  Level Boston Center
05:55AM 41.7211 -73.7672 182° South 391 450 26,000  Level New York Center
05:56AM 41.6128 -73.7733 182° South 391 450 26,000  Level New York Center
05:57AM 41.5167 -73.7828 184° South 391 450 26,000  Level New York Center
05:58AM 41.4314 -73.8647 216° Southwest 373 429 26,000  Level New York Center
05:59AM 41.3558 -73.9606 224° Southwest 380 437 26,000  Level New York Center
06:00AM 41.2761 -74.0592 223° Southwest 380 437 26,000  Level New York Center
06:01AM 41.1983 -74.1572 224° Southwest 386 444 26,000  Level New York Center
06:02AM 41.1189 -74.2442 220° Southwest 381 438 26,000  Level New York Center
06:03AM 41.0431 -74.3392 223° Southwest 381 438 26,000  Level New York Center
06:04AM 40.9672 -74.4342 223° Southwest 381 438 26,000  Level New York Center
06:05AM 40.8894 -74.5289 223° Southwest 381 438 26,000  Level New York Center
06:06AM 40.8136 -74.6178 222° Southwest 381 438 26,000  Level New York Center
06:07AM 40.7356 -74.7119 222° Southwest 381 438 26,000 -900 Level New York Center
06:08AM 40.6617 -74.7981 221° Southwest 381 438 24,300 -1,800 Descending New York Center
06:09AM 40.5856 -74.8892 222° Southwest 376 433 22,500 -1,200 Descending New York Center
06:10AM 40.5117 -74.9775 222° Southwest 376 433 22,000 -300 Descending New York Center
06:11AM 40.4375 -75.0686 223° Southwest 370 426 22,000  Level New York Center
06:12AM 40.3656 -75.1539 222° Southwest 360 414 22,000  Level New York Center
06:13AM 40.2914 -75.2389 221° Southwest 353 406 22,000  Level New York Center
06:14AM 40.2153 -75.3264 221° Southwest 353 406 22,000  Level New York Center
06:15AM 40.1431 -75.4142 223° Southwest 358 412 22,000  Level New York Center
06:16AM 40.0708 -75.4989 222° Southwest 358 412 22,000  Level New York Center
06:17AM 40.0042 -75.6000 229° Southwest 358 412 22,000  Level New York Center
06:18AM 39.9417 -75.6986 230° Southwest 363 418 22,000  Level New York Center
06:19AM 39.8753 -75.7939 228° Southwest 363 418 22,000  Level New York Center
06:20AM 39.8106 -75.8919 229° Southwest 363 418 22,000  Level New York Center
06:21AM 39.7369 -76.0000 228° Southwest 370 426 22,000 -1,560 Level New York Center
06:23AM 39.6167 -76.1667 227° Southwest 346 398 17,800 -2,520 Descending Potomac TRACON
06:24AM 39.5667 -76.2500 232° Southwest 333 383 15,100 -2,220 Descending Potomac TRACON
06:25AM 39.5000 -76.3333 224° Southwest 310 357 13,400 -1,560 Descending Potomac TRACON
06:26AM 39.4500 -76.4167 232° Southwest 308 354 12,000 -780 Descending Potomac TRACON
06:27AM 39.3833 -76.4667 210° Southwest 311 358 12,000  Level Potomac TRACON
06:28AM 39.3167 -76.5333 218° Southwest 308 354 12,000 -180 Level Potomac TRACON
06:29AM 39.2500 -76.5833 210° Southwest 308 354 11,700 -1,020 Descending Potomac TRACON
06:30AM 39.1833 -76.6500 218° Southwest 288 331 10,100 -900 Descending Potomac TRACON
06:31AM 39.1333 -76.7167 226° Southwest 278 320 10,000 -60 Descending Potomac TRACON
06:32AM 39.0667 -76.7833 218° Southwest 279 321 10,000 -480 Level Potomac TRACON
06:33AM 39.0167 -76.8500 226° Southwest 279 321 9,200 -1,320 Descending Potomac TRACON
06:34AM 38.9667 -76.9000 218° Southwest 273 314 7,600 -1,740 Descending Potomac TRACON
06:35AM 38.9000 -76.9333 201° Southwest 275 316 6,000 -900 Descending Potomac TRACON
06:36AM 38.8333 -76.9500 191° South 235 270 5,900 -780 Descending Potomac TRACON
06:37AM 38.7833 -76.9500 180° South 203 234 4,500 -1,020 Descending Potomac TRACON
06:38AM 38.7167 -76.9333 169° South 210 242 4,000 -420 Descending Potomac TRACON
06:39AM 38.6667 -76.9333 180° South 193 222 3,800 -540 Descending Potomac TRACON
06:40AM 38.6333 -76.9667 218° Southwest 179 206 3,000 -420 Descending Potomac TRACON
06:41AM 38.6667 -77.0167 311° West 168 193 3,000 -300 Level Potomac TRACON
06:41AM 38.7167 -77.0167 360° North 170 196 2,500 -780 Descending Potomac TRACON
06:42AM 38.7500 -77.0333 339° North 168 193 1,600 -900 Descending Potomac TRACON
06:43AM 38.8000 -77.0333 360° North 142 163 800 -840 Descending Potomac TRACON